Vint Hill Farms, Virginia
Current Conditions -  °F | °C
As of 6:55 PM on Saturday 22 Nov 2014 (Local Time) from KHWY Reporting Station
Clear Clear  
Wind Chill: 40°   Ceiling: Unl
Heat Index: 44°   Visibility: 10mi
Dew Point: 23°   Wind: 8mph
Humidity: 44%   Direction: 200°SSW
Pressure: 30.28"   Gusts: NA
Location:  38.7217°N, 77.7849°W
Report Text: KHWY 222355Z AUTO 20007KT 10SM CLR 07/M05 A3028 RMK AO2 T00671048 10118 20065
Loading
Personal Weather Stations






























Interactive Weather Map New forecast layout! Learn more

10-Day Weather Forecast

Advertisements
Track Severe Weather on mobile